createdAt,value
2023-04-06T00:04:10.594Z,6.78
2023-04-06T00:09:25.540Z,5.82
2023-04-06T00:14:40.559Z,5.38
2023-04-06T00:19:55.527Z,5.65
2023-04-06T00:25:10.501Z,5.93
2023-04-06T00:30:25.647Z,5.97
2023-04-06T00:35:40.936Z,5.72
2023-04-06T00:40:57.610Z,5.15
2023-04-06T00:46:12.602Z,5.80
2023-04-06T00:51:27.523Z,6.28
2023-04-06T00:56:42.533Z,4.32
2023-04-06T01:01:57.651Z,4.75
2023-04-06T01:07:18.540Z,5.20
2023-04-06T01:12:51.515Z,4.65
2023-04-06T01:18:25.545Z,4.28
2023-04-06T01:23:55.581Z,4.43
2023-04-06T01:29:18.607Z,4.35
2023-04-06T01:34:33.620Z,4.45
2023-04-06T01:39:52.577Z,4.78
2023-04-06T01:45:20.885Z,4.07
2023-04-06T01:50:41.869Z,3.67
2023-04-06T01:56:03.536Z,3.75
2023-04-06T02:01:28.616Z,4.38
2023-04-06T02:06:43.543Z,3.83
2023-04-06T02:12:02.861Z,3.88
2023-04-06T02:17:18.524Z,3.25
2023-04-06T02:22:33.945Z,3.72
2023-04-06T02:27:49.655Z,4.13
2023-04-06T02:33:04.576Z,3.60
2023-04-06T02:38:24.587Z,3.87
2023-04-06T02:43:42.518Z,3.40
2023-04-06T02:49:07.619Z,3.40
2023-04-06T02:54:23.584Z,3.65
2023-04-06T02:59:38.626Z,3.47
2023-04-06T03:05:09.581Z,3.65
2023-04-06T03:10:26.339Z,3.85
2023-04-06T03:15:41.609Z,3.58
2023-04-06T03:20:59.881Z,3.50
2023-04-06T03:26:30.537Z,3.15
2023-04-06T03:31:48.624Z,3.55
2023-04-06T03:37:14.575Z,3.35
2023-04-06T03:42:34.563Z,3.13
2023-04-06T03:47:54.665Z,3.63
2023-04-06T03:53:10.520Z,3.50
2023-04-06T03:58:25.544Z,3.08
2023-04-06T04:03:40.919Z,9.90
2023-04-06T04:08:56.575Z,10.07
2023-04-06T04:14:11.551Z,9.93
2023-04-06T04:19:27.884Z,6.20
2023-04-06T04:24:43.578Z,6.72
2023-04-06T04:29:58.372Z,6.50
2023-04-06T04:35:13.594Z,6.43
2023-04-06T04:40:28.538Z,6.20
2023-04-06T04:45:50.599Z,5.43
2023-04-06T04:51:19.604Z,5.68
2023-04-06T04:56:54.573Z,4.38
2023-04-06T05:02:23.166Z,5.50
2023-04-06T05:07:56.912Z,4.18
2023-04-06T05:13:25.589Z,4.47
2023-04-06T05:18:42.605Z,5.43
2023-04-06T05:23:58.604Z,6.00
2023-04-06T05:29:21.561Z,4.90
2023-04-06T05:34:36.657Z,4.82
2023-04-06T05:39:51.540Z,4.88
2023-04-06T05:45:07.605Z,4.57
2023-04-06T05:50:22.610Z,4.55
2023-04-06T05:55:39.083Z,4.90
2023-04-06T06:00:59.604Z,4.68
2023-04-06T06:06:22.299Z,4.30
2023-04-06T06:11:58.320Z,4.43
2023-04-06T06:17:13.602Z,5.25
2023-04-06T06:22:29.550Z,4.95
2023-04-06T06:27:45.596Z,5.00
2023-04-06T06:33:02.599Z,4.70
2023-04-06T06:38:17.547Z,4.88
2023-04-06T06:43:33.615Z,4.75
2023-04-06T06:48:50.595Z,4.50
2023-04-06T06:54:05.745Z,5.45
2023-04-06T06:59:21.665Z,4.70
2023-04-06T07:04:36.489Z,4.78
2023-04-06T07:09:51.572Z,4.60
2023-04-06T07:15:06.319Z,4.97
2023-04-06T07:20:21.538Z,4.55
2023-04-06T07:25:37.556Z,5.13
2023-04-06T07:30:52.954Z,4.85
2023-04-06T07:36:09.606Z,4.93
2023-04-06T07:41:26.904Z,5.47
2023-04-06T07:46:43.625Z,4.43
2023-04-06T07:51:59.617Z,5.13
2023-04-06T07:57:15.621Z,5.15
2023-04-06T08:02:30.760Z,4.72
2023-04-06T08:07:46.607Z,5.50
2023-04-06T08:13:01.571Z,5.10
2023-04-06T08:18:16.572Z,4.68
2023-04-06T08:23:31.911Z,4.30
2023-04-06T08:28:47.563Z,4.85
2023-04-06T08:34:02.646Z,4.63
2023-04-06T08:39:17.862Z,4.05
2023-04-06T08:44:33.628Z,4.85
2023-04-06T08:49:48.526Z,5.00
2023-04-06T08:55:03.432Z,5.10
2023-04-06T09:00:18.302Z,5.30
2023-04-06T09:05:33.889Z,5.25
2023-04-06T09:10:49.558Z,5.00
2023-04-06T09:16:04.633Z,5.85
2023-04-06T09:21:21.014Z,4.95
2023-04-06T09:26:38.638Z,5.20
2023-04-06T09:31:53.381Z,5.30
2023-04-06T09:37:08.590Z,5.75
2023-04-06T09:42:23.640Z,5.65
2023-04-06T09:47:39.683Z,5.97
2023-04-06T09:52:54.571Z,4.55
2023-04-06T09:58:09.648Z,5.20
2023-04-06T10:03:25.043Z,4.93
2023-04-06T10:08:40.600Z,5.22
2023-04-06T10:13:55.420Z,5.35
2023-04-06T10:19:10.878Z,5.35
2023-04-06T10:24:26.601Z,4.90
2023-04-06T10:29:41.603Z,4.68
2023-04-06T10:34:56.598Z,5.50
2023-04-06T10:40:11.603Z,6.68
2023-04-06T10:45:26.668Z,4.93
2023-04-06T10:50:41.922Z,5.82
2023-04-06T10:55:57.412Z,4.50
2023-04-06T11:01:12.641Z,50.75
2023-04-06T11:06:27.653Z,56.50
2023-04-06T11:11:42.612Z,41.05
2023-04-06T11:16:57.729Z,38.00
2023-04-06T11:22:13.572Z,31.00
2023-04-06T11:27:28.652Z,28.48
2023-04-06T11:32:43.670Z,25.58
2023-04-06T11:38:00.323Z,23.17
2023-04-06T11:43:15.596Z,21.50
2023-04-06T11:48:30.461Z,18.63
2023-04-06T11:53:45.398Z,15.27
2023-04-06T11:59:00.667Z,16.75
2023-04-06T12:04:15.397Z,15.23
2023-04-06T12:09:30.587Z,12.80
2023-04-06T12:14:45.570Z,11.40
2023-04-06T12:20:05.366Z,10.90
2023-04-06T12:25:24.656Z,9.90
2023-04-06T12:30:39.723Z,8.02
2023-04-06T12:35:54.950Z,7.65
2023-04-06T12:41:10.351Z,7.18
2023-04-06T12:46:25.620Z,7.50
2023-04-06T12:51:40.634Z,6.20
2023-04-06T12:56:55.641Z,6.00
2023-04-06T13:02:10.654Z,5.85
2023-04-06T13:07:25.615Z,5.25
2023-04-06T13:12:40.567Z,5.20
2023-04-06T13:17:56.749Z,5.80
2023-04-06T13:23:12.168Z,5.40
2023-04-06T13:28:27.418Z,3.90
2023-04-06T13:33:42.584Z,4.13
2023-04-06T13:38:57.962Z,3.85
2023-04-06T13:44:13.648Z,3.28
2023-04-06T13:49:28.416Z,2.90
2023-04-06T13:54:43.404Z,3.00
2023-04-06T13:59:58.600Z,3.05
2023-04-06T14:05:14.436Z,3.15
2023-04-06T14:10:29.641Z,2.67
2023-04-06T14:15:44.651Z,3.05
2023-04-06T14:20:59.409Z,3.00
2023-04-06T14:26:14.640Z,2.63
2023-04-06T14:31:29.423Z,2.47
2023-04-06T14:36:44.718Z,2.35
2023-04-06T14:41:59.606Z,2.58
2023-04-06T14:47:14.644Z,2.10
2023-04-06T14:52:31.946Z,1.70
2023-04-06T14:58:25.578Z,2.03
2023-04-06T15:03:40.702Z,2.33
2023-04-06T15:08:55.685Z,2.22
2023-04-06T15:14:10.921Z,2.17
2023-04-06T15:19:26.587Z,2.30
2023-04-06T15:24:41.598Z,1.50
2023-04-06T15:29:57.065Z,1.88
2023-04-06T15:35:13.926Z,2.28
2023-04-06T15:40:29.703Z,1.80
2023-04-06T15:45:44.938Z,1.77
2023-04-06T15:51:00.644Z,1.73
2023-04-06T15:56:15.609Z,2.28
2023-04-06T16:01:30.689Z,2.08
2023-04-06T16:06:45.640Z,1.90
2023-04-06T16:12:00.667Z,1.90
2023-04-06T16:17:15.591Z,1.70
2023-04-06T16:22:30.606Z,1.80
2023-04-06T16:27:45.648Z,1.48
2023-04-06T16:33:00.792Z,1.83
2023-04-06T16:38:16.089Z,1.58
2023-04-06T16:43:31.644Z,1.75
2023-04-06T16:48:46.714Z,1.88
2023-04-06T16:54:01.634Z,5.07
2023-04-06T16:59:16.649Z,21.63
2023-04-06T17:04:31.372Z,39.35
2023-04-06T17:09:46.386Z,52.72
2023-04-06T17:15:01.391Z,66.07
2023-04-06T17:20:16.641Z,73.63
2023-04-06T17:25:31.488Z,80.63
2023-04-06T17:30:46.683Z,82.65
2023-04-06T17:36:01.413Z,81.68
2023-04-06T17:41:16.690Z,76.45
2023-04-06T17:46:31.727Z,78.05
2023-04-06T17:51:46.681Z,75.63
2023-04-06T17:57:01.694Z,70.65
2023-04-06T18:02:17.026Z,70.07
2023-04-06T18:07:32.940Z,66.45
2023-04-06T18:12:48.659Z,65.78
2023-04-06T18:18:03.667Z,59.72
2023-04-06T18:23:20.033Z,57.50
2023-04-06T18:28:35.683Z,54.70
2023-04-06T18:33:52.882Z,50.65
2023-04-06T18:39:09.673Z,48.70
2023-04-06T18:44:24.615Z,46.33
2023-04-06T18:49:39.607Z,41.45
2023-04-06T18:54:54.678Z,37.67
2023-04-06T19:00:09.637Z,37.83
2023-04-06T19:05:24.652Z,35.28
2023-04-06T19:10:39.667Z,34.28
2023-04-06T19:15:54.992Z,31.75
2023-04-06T19:21:10.620Z,31.38
2023-04-06T19:26:25.663Z,28.25
2023-04-06T19:31:40.851Z,27.80
2023-04-06T19:36:55.654Z,28.58
2023-04-06T19:42:10.669Z,23.50
2023-04-06T19:47:25.717Z,21.83
2023-04-06T19:52:41.012Z,22.33
2023-04-06T19:57:56.597Z,20.38
2023-04-06T20:03:12.116Z,20.77
2023-04-06T20:08:27.914Z,19.77
2023-04-06T20:13:43.627Z,19.80
2023-04-06T20:18:58.623Z,15.70
2023-04-06T20:24:13.399Z,15.35
2023-04-06T20:29:28.710Z,12.80
2023-04-06T20:34:43.672Z,12.25
2023-04-06T20:39:59.070Z,11.60
2023-04-06T20:45:14.669Z,11.45
2023-04-06T20:50:29.651Z,10.50
2023-04-06T20:55:44.681Z,8.85
2023-04-06T21:00:59.435Z,8.82
2023-04-06T21:06:15.021Z,8.27
2023-04-06T21:11:30.629Z,8.65
2023-04-06T21:16:45.928Z,7.55
2023-04-06T21:22:01.693Z,7.68
2023-04-06T21:27:16.976Z,7.45
2023-04-06T21:32:32.677Z,7.50
2023-04-06T21:37:47.554Z,6.90
2023-04-06T21:43:02.958Z,7.00
2023-04-06T21:48:18.634Z,6.93
2023-04-06T21:53:33.971Z,7.45
2023-04-06T21:58:49.929Z,6.00
2023-04-06T22:04:05.857Z,6.60
2023-04-06T22:09:21.694Z,6.00
2023-04-06T22:14:36.619Z,6.93
2023-04-06T22:19:51.664Z,6.15
2023-04-06T22:25:06.986Z,6.18
2023-04-06T22:30:22.668Z,6.18
2023-04-06T22:35:37.781Z,5.53
2023-04-06T22:40:53.623Z,5.13
2023-04-06T22:46:08.783Z,6.15
2023-04-06T22:51:23.634Z,5.47
2023-04-06T22:56:38.675Z,6.10
2023-04-06T23:01:53.708Z,5.28
2023-04-06T23:07:08.707Z,5.10
2023-04-06T23:12:23.666Z,5.32
2023-04-06T23:17:38.758Z,5.43
2023-04-06T23:22:53.669Z,5.57
2023-04-06T23:28:08.622Z,5.05
2023-04-06T23:33:23.586Z,5.50
2023-04-06T23:38:39.002Z,5.55
2023-04-06T23:43:55.016Z,6.30
2023-04-06T23:49:10.710Z,5.95
2023-04-06T23:54:25.709Z,5.70
2023-04-06T23:59:40.417Z,6.90
